FW0022 Weather Reports


Display with metric or nautical units.
time (UTC)temp
F
wind
direction
speed
MPH
gust
MPH
rain 1hr
in
rain 24hr
in
rain mn
in
humidity
%
barometer
mb
20191215235202 24 247 5.0 9.0 0.00 9.83 9.83 76 1005.3
20191215234702 25 239 5.0 13.0 0.00 9.83 9.83 76 1005.4
20191215234202 24 241 4.0 7.0 0.00 9.83 9.83 77 1005.2
20191215233702 24 244 4.0 12.0 0.00 9.83 9.83 76 1005.1
20191215233202 24 248 4.0 9.0 0.00 9.83 9.83 76 1005.2
20191215232702 25 252 3.0 7.0 0.00 9.83 9.83 76 1005.4
20191215232202 25 255 3.0 6.0 0.00 9.83 9.83 76 1005.6
20191215231702 25 256 3.0 5.0 0.00 9.83 9.83 76 1005.5
20191215231202 25 243 3.0 8.0 0.00 9.83 9.83 75 1005.3
20191215230702 25 257 2.0 16.0 0.00 9.83 9.83 75 1005.6
20191215230202 25 252 3.0 16.0 0.00 9.83 9.83 75 1005.6
20191215225702 25 249 4.0 18.0 0.00 9.83 9.83 76 1005.5
20191215225201 25 262 3.0 10.0 0.00 9.83 9.83 76 1005.5
20191215224702 25 255 3.0 10.0 0.00 9.83 9.83 75 1005.4
20191215224201 25 267 2.0 8.0 0.00 9.83 9.83 76 1005.4
20191215223702 25 260 4.0 8.0 0.00 9.83 9.83 75 1005.4
20191215223201 25 258 3.0 12.0 0.00 9.83 9.83 75 1005.5
20191215222701 25 279 2.0 12.0 0.00 9.83 9.83 75 1005.6
20191215222202 25 259 3.0 8.0 0.00 9.83 9.83 76 1005.8
20191215221701 25 256 4.0 7.0 0.00 9.83 9.83 76 1005.5
20191215221202 25 254 5.0 9.0 0.00 9.83 9.83 76 1005.3
20191215220701 25 257 4.0 8.0 0.00 9.83 9.83 76 1005.4
20191215220202 25 256 3.0 8.0 0.00 9.83 9.83 76 1005.5
20191215215702 24 269 3.0 9.0 0.00 9.83 9.83 76 1005.2
20191215215202 24 253 4.0 8.0 0.00 9.83 9.83 76 1004.9
20191215214702 24 256 4.0 9.0 0.00 9.83 9.83 76 1005.0
20191215214202 25 251 6.0 10.0 0.00 9.83 9.83 76 1005.0
20191215213702 25 249 5.0 8.0 0.00 9.83 9.83 75 1005.0
20191215213202 25 256 5.0 10.0 0.00 9.83 9.83 75 1005.2
20191215212702 25 253 5.0 10.0 0.00 9.83 9.83 75 1005.1
20191215212201 25 265 4.0 7.0 0.00 9.83 9.83 75 1005.2
20191215211702 25 248 2.0 6.0 0.00 9.83 9.83 75 1005.1
20191215211202 25 260 3.0 6.0 0.00 9.83 9.83 75 1005.2
20191215210702 25 254 3.0 16.0 0.00 9.83 9.83 76 1005.1
20191215210202 25 260 4.0 28.0 0.00 9.83 9.83 76 1005.1
20191215205701 24 252 5.0 27.0 0.00 9.83 9.83 76 1005.0
20191215205202 24 246 4.0 24.0 0.00 9.83 9.83 76 1005.1
20191215204702 25 250 4.0 21.0 0.00 9.83 9.83 76 1005.1
20191215204202 25 256 5.0 7.0 0.00 9.83 9.83 76 1005.2
20191215203702 24 262 5.0 10.0 0.00 9.83 9.83 77 1005.1
20191215203202 24 242 6.0 10.0 0.00 9.83 9.83 76 1004.9
20191215202702 24 252 6.0 15.0 0.00 9.83 9.83 76 1005.0
20191215202201 24 255 5.0 15.0 0.00 9.83 9.83 76 1005.1
20191215201702 24 252 4.0 10.0 0.00 9.83 9.83 76 1005.3
20191215201202 24 261 7.0 25.0 0.00 9.83 9.83 76 1005.3
20191215200702 24 257 5.0 11.0 0.00 9.83 9.83 77 1005.3
20191215200202 24 262 4.0 10.0 0.00 9.83 9.83 77 1005.2
20191215195702 24 256 4.0 20.0 0.00 9.83 9.83 77 1005.3
20191215195202 24 252 5.0 11.0 0.00 9.83 9.83 77 1005.1
20191215194702 24 230 4.0 21.0 0.00 9.83 9.83 78 1005.3
20191215194202 24 242 5.0 9.0 0.00 9.83 9.83 77 1005.2
20191215193702 24 242 4.0 17.0 0.00 9.83 9.83 78 1005.4
20191215193202 23 241 6.0 16.0 0.00 9.83 9.83 78 1005.1
20191215192701 24 243 4.0 8.0 0.00 9.83 9.83 78 1005.6
20191215192201 24 243 3.0 10.0 0.74 9.83 9.83 78 1005.4
20191215191702 23 233 5.0 10.0 7.97 9.83 9.83 78 1005.4
20191215191202 23 245 5.0 24.0 9.83 9.83 9.83 78 1005.4
20191215190702 23 243 6.0 22.0 9.83 9.83 9.83 78 1005.4
20191215190202 23 250 8.0 20.0 9.83 9.83 9.83 78 1005.5
20191215185702 23 236 6.0 28.0 9.83 9.83 9.83 78 1005.6
20191215185202 23 239 12.0 25.0 9.83 9.83 9.83 79 1005.5
20191215184701 23 238 15.0 28.0 9.83 9.83 9.83 79 1005.5
20191215184202 23 242 7.0 23.0 9.83 9.83 9.83 79 1005.4
20191215183701 23 236 10.0 22.0 9.83 9.83 9.83 78 1005.3
20191215183202 23 243 8.0 20.0 9.83 9.83 9.83 78 1005.4
20191215182702 23 255 7.0 24.0 9.83 9.83 9.83 78 1005.6
20191215182202 23 251 8.0 23.0 9.83 9.83 9.83 78 1005.8
20191215181702 23 267 7.0 22.0 9.83 9.83 9.83 79 1005.8
20191215181202 23 257 7.0 19.0 9.83 9.83 9.83 79 1005.7
20191215180702 23 260 26.0 149.0 9.83 9.83 9.83 79 1005.7
20191215180202 23 257 149.0 149.0 4.80 4.80 4.80 79 1005.7
20191215175702 23 252 9.0 19.0 0.00 0.00 0.00 79 1005.8
20191215175202 23 247 4.0 17.0 0.00 0.00 0.00 79 1005.9
20191215174702 22 256 3.0 13.0 0.00 0.00 0.00 79 1005.7
20191215174202 22 266 3.0 20.0 0.00 0.00 0.00 79 1005.7
20191215173702 23 251 3.0 18.0 0.00 0.00 0.00 79 1005.9
20191215173202 22 250 3.0 13.0 0.00 0.00 0.00 79 1005.9
20191215172702 22 250 3.0 14.0 0.00 0.00 0.00 80 1005.9
20191215172202 22 231 4.0 13.0 0.00 0.00 0.00 80 1005.8
20191215171702 22 246 4.0 14.0 0.00 0.00 0.00 80 1005.7
20191215171202 22 242 3.0 12.0 0.00 0.00 0.00 80 1005.8
20191215170702 21 241 2.0 10.0 0.00 0.00 0.00 80 1005.8
20191215170202 21 253 2.0 9.0 0.00 0.00 0.00 80 1005.7
20191215163702 19 198 0.0 2.0 0.00 0.00 0.00 81 1005.3
20191215163202 19 180 0.0 4.0 0.00 0.00 0.00 82 1005.2
20191215162702 19 197 1.0 6.0 0.00 0.00 0.00 82 1005.2
20191215162202 19 181 1.0 6.0 0.00 0.00 0.00 82 1005.1
20191215161702 19 173 0.0 6.0 0.00 0.00 0.00 82 1005.0
20191215161202 18 219 0.0 3.0 0.00 0.00 0.00 82 1005.0
20191215160702 18 204 1.0 15.0 0.00 0.00 0.00 83 1004.8
20191215160202 17 184 4.0 16.0 0.00 0.00 0.00 82 1004.3
20191215155702 17 188 2.0 8.0 0.00 0.00 0.00 82 1004.5
20191215155202 17 183 3.0 10.0 0.00 0.00 0.00 81 1004.5
20191215153202 18 193 0.0 5.0 0.00 0.00 0.00 81 1004.7
20191215152702 17 191 1.0 3.0 0.00 0.00 0.00 81 1004.6
20191215152202 17 188 1.0 9.0 0.00 0.00 0.00 81 1004.3
20191215151702 17 180 1.0 8.0 0.00 0.00 0.00 80 1004.2
20191215151202 18 308 1.0 3.0 0.00 0.00 0.00 80 1004.5
20191215150702 17 179 1.0 3.0 0.00 0.00 0.00 79 1004.2
20191215150202 18 205 0.0 3.0 0.00 0.00 0.00 78 1004.5
20191215145702 19 0 0.0 0.0 0.00 0.00 0.00 78 1004.5
20191215145202 19 0 0.0 0.0 0.00 0.00 0.00 78 1004.6
20191215144702 19 0 0.0 0.0 0.00 0.00 0.00 77 1004.5
20191215144202 19 0 0.0 0.0 0.00 0.00 0.00 78 1004.6
20191215143702 19 0 0.0 0.0 0.00 0.00 0.00 78 1004.8
20191215143202 19 0 0.0 0.0 0.00 0.00 0.00 77 1004.6
20191215142702 19 0 0.0 0.0 0.00 0.00 0.00 78 1004.8
20191215142202 19 0 0.0 0.0 0.00 0.00 0.00 78 1004.7
20191215141702 19 0 0.0 0.0 0.00 0.00 0.00 78 1004.8
20191215141202 19 0 0.0 0.0 0.00 0.00 0.00 78 1004.8
20191215140702 19 0 0.0 0.0 0.00 0.00 0.00 78 1004.6
20191215140202 19 0 0.0 0.0 0.00 0.00 0.00 78 1004.7
20191215135702 18 0 0.0 0.0 0.00 0.00 0.00 77 1004.5
20191215135202 19 0 0.0 0.0 0.00 0.00 0.00 77 1004.6
20191215134702 19 0 0.0 0.0 0.00 0.00 0.00 77 1004.7
20191215134202 19 0 0.0 0.0 0.00 0.00 0.00 77 1004.8
20191215133702 19 0 0.0 0.0 0.00 0.00 0.00 77 1004.9
20191215133202 19 0 0.0 0.0 0.00 0.00 0.00 77 1004.8
20191215132702 20 0 0.0 0.0 0.00 0.00 0.00 77 1004.9
20191215132202 20 0 0.0 0.0 0.00 0.00 0.00 77 1005.0
20191215131702 20 0 0.0 0.0 0.00 0.00 0.00 77 1005.0
20191215131202 20 0 0.0 0.0 0.00 0.00 0.00 77 1005.0
20191215130202 20 0 0.0 0.0 0.00 0.00 0.00 77 1004.9
20191215125702 20 0 0.0 0.0 0.00 0.00 0.00 77 1004.9
20191215125202 19 0 0.0 0.0 0.00 0.00 0.00 77 1004.8
20191215124702 20 0 0.0 0.0 0.00 0.00 0.00 77 1004.8
20191215124202 20 0 0.0 0.0 0.00 0.00 0.00 77 1004.8
20191215123702 20 0 0.0 0.0 0.00 0.00 0.00 77 1004.9
20191215123202 20 0 0.0 0.0 0.00 0.00 0.00 77 1004.9
20191215122702 20 0 0.0 0.0 0.00 0.00 0.00 77 1004.9
20191215122202 20 0 0.0 0.0 0.00 0.00 0.00 77 1004.8
20191215121702 20 0 0.0 0.0 0.00 0.00 0.00 77 1004.8
20191215121202 19 0 0.0 0.0 0.00 0.00 0.00 77 1004.8
20191215120702 20 0 0.0 0.0 0.00 0.00 0.00 77 1004.9
20191215120202 20 0 0.0 0.0 0.00 0.00 0.00 77 1004.9
20191215115702 20 0 0.0 0.0 0.00 0.00 0.00 77 1005.0
20191215115202 20 0 0.0 0.0 0.00 0.00 0.00 78 1005.0
20191215114702 20 0 0.0 0.0 0.00 0.00 0.00 78 1005.0
20191215114202 19 0 0.0 0.0 0.00 0.00 0.00 77 1004.8
20191215113702 19 0 0.0 0.0 0.00 0.00 0.00 78 1004.8
20191215113202 20 0 0.0 0.0 0.00 0.00 0.00 78 1005.0
20191215112702 20 0 0.0 0.0 0.00 0.00 0.00 78 1005.0
20191215112202 20 0 0.0 0.0 0.00 0.00 0.00 78 1005.0
20191215111702 20 0 0.0 0.0 0.00 0.00 0.00 78 1005.0
20191215111202 20 0 0.0 0.0 0.00 0.00 0.00 79 1005.1
20191215110702 20 0 0.0 0.0 0.00 0.00 0.00 79 1005.1
20191215110202 20 0 0.0 0.0 0.00 0.00 0.00 79 1005.0
20191215105702 19 0 0.0 0.0 0.00 0.00 0.00 79 1004.9
20191215105202 19 0 0.0 0.0 0.00 0.00 0.00 79 1004.8
20191215104702 19 0 0.0 0.0 0.00 0.00 0.00 79 1004.7
20191215104202 19 0 0.0 0.0 0.00 0.00 0.00 80 1004.6
20191215103702 18 0 0.0 0.0 0.00 0.00 0.00 79 1004.4
20191215103202 18 0 0.0 0.0 0.00 0.00 0.00 80 1004.4
20191215102702 18 360 0.0 3.0 0.00 0.00 0.00 79 1004.3
20191215100702 19 0 0.0 0.0 0.00 0.00 0.00 80 1004.5
20191215100202 19 0 0.0 0.0 0.00 0.00 0.00 80 1004.4
20191215095702 19 0 0.0 0.0 0.00 0.00 0.00 80 1004.2
20191215095202 19 0 0.0 0.0 0.00 0.00 0.00 80 1004.3
20191215094702 18 0 0.0 2.0 0.00 0.00 0.00 80 1004.2
20191215094202 18 330 0.0 6.0 0.00 0.00 0.00 80 1004.1
20191215093702 18 4 1.0 6.0 0.00 0.00 0.00 80 1003.9
20191215093202 18 360 1.0 6.0 0.00 0.00 0.00 80 1003.8
20191215092702 18 360 1.0 4.0 0.00 0.00 0.00 80 1003.8
20191215092202 18 360 0.0 4.0 0.00 0.00 0.00 80 1003.9
20191215091702 19 352 0.0 3.0 0.00 0.00 0.00 80 1003.9
20191215091202 18 360 0.0 3.0 0.00 0.00 0.00 80 1003.8
20191215090702 18 360 0.0 6.0 0.00 0.00 0.00 79 1003.7
20191215090202 18 348 1.0 6.0 0.00 0.00 0.00 79 1003.7
20191215085702 19 352 1.0 4.0 0.00 0.00 0.00 79 1003.8
20191215085202 19 315 0.0 5.0 0.00 0.00 0.00 79 1003.8
20191215084702 19 348 1.0 7.0 0.00 0.00 0.00 79 1003.7
20191215084202 19 327 1.0 11.0 0.00 0.00 0.00 78 1003.8
20191215083702 19 321 1.0 5.0 0.00 0.00 0.00 78 1003.7
20191215083202 19 323 0.0 7.0 0.00 0.00 0.00 78 1003.8
20191215082702 19 334 1.0 8.0 0.00 0.00 0.00 78 1003.5
20191215082202 19 321 0.0 6.0 0.00 0.00 0.00 78 1003.3
20191215081702 19 322 1.0 9.0 0.00 0.00 0.00 77 1003.4
20191215081202 20 332 0.0 6.0 0.00 0.00 0.00 77 1003.7
20191215080702 20 305 0.0 2.0 0.00 0.00 0.00 77 1003.9
20191215080202 21 0 0.0 2.0 0.00 0.00 0.00 77 1003.8
20191215075702 21 0 0.0 6.0 0.00 0.00 0.00 77 1003.8
20191215075202 21 360 0.0 2.0 0.00 0.00 0.00 76 1003.7
20191215074702 22 0 0.0 0.0 0.00 0.00 0.00 76 1004.0
20191215074202 22 0 0.0 1.0 0.00 0.00 0.00 77 1004.0
20191215073702 21 360 0.0 2.0 0.00 0.00 0.00 76 1003.9
20191215073202 22 320 0.0 2.0 0.00 0.00 0.00 76 1004.0
20191215072702 22 289 0.0 2.0 0.00 0.00 0.00 76 1004.0
20191215072202 22 292 1.0 3.0 0.00 0.00 0.00 76 1003.8
20191215071702 22 256 0.0 4.0 0.00 0.00 0.00 77 1003.9
20191215071202 22 293 1.0 4.0 0.00 0.00 0.00 77 1003.9
20191215070702 22 274 0.0 3.0 0.00 0.00 0.00 77 1003.9
20191215070202 22 269 1.0 4.0 0.00 0.00 0.00 77 1003.9
20191215065702 22 291 1.0 5.0 0.00 0.00 0.00 78 1003.9
20191215065202 22 285 3.0 8.0 0.00 0.00 0.00 78 1003.8
20191215064702 21 282 3.0 9.0 0.00 0.00 0.00 78 1003.7
20191215064202 21 299 3.0 9.0 0.00 0.00 0.00 78 1003.6
20191215063702 21 295 2.0 7.0 0.00 0.00 0.00 78 1003.6
20191215063202 21 303 4.0 7.0 0.00 0.00 0.00 78 1003.5
20191215062702 21 294 4.0 7.0 0.00 0.00 0.00 79 1003.5
20191215062202 21 300 4.0 10.0 0.00 0.00 0.00 79 1003.4
20191215061702 21 291 4.0 10.0 0.00 0.00 0.00 78 1003.4
20191215061202 21 310 4.0 8.0 0.00 0.00 0.00 78 1003.3
20191215060702 21 285 3.0 5.0 0.00 0.00 0.00 78 1003.4
20191215060202 22 295 2.0 8.0 0.00 0.00 0.00 78 1003.4
20191215055702 21 305 4.0 8.0 0.00 0.00 0.00 78 1003.2
20191215055202 22 280 2.0 6.0 0.00 0.00 0.00 78 1003.2
20191215054702 22 274 3.0 7.0 0.00 0.00 0.00 78 1003.2
20191215054202 22 284 3.0 6.0 0.00 0.00 0.00 78 1003.3
20191215053702 22 289 2.0 6.0 0.00 0.00 0.00 78 1003.3
20191215053202 22 282 2.0 6.0 0.00 0.00 0.00 78 1003.3
20191215052702 22 279 3.0 7.0 0.00 0.00 0.00 78 1003.2
20191215052202 22 275 2.0 7.0 0.00 0.00 0.00 78 1003.1
20191215051702 22 278 3.0 7.0 0.00 0.00 0.00 78 1003.2
20191215051202 22 292 3.0 6.0 0.00 0.00 0.00 78 1003.1
20191215050702 22 285 3.0 7.0 0.00 0.00 0.00 79 1003.1
20191215050202 22 274 3.0 7.0 0.00 0.00 0.00 79 1003.0
20191215045702 22 294 4.0 10.0 0.00 0.00 0.00 79 1002.9
20191215043702 21 274 3.0 8.0 0.00 0.00 0.00 79 1002.6
20191215043202 21 281 4.0 9.0 0.00 0.00 0.00 79 1002.6
20191215042702 22 273 4.0 14.0 0.00 0.00 0.00 79 1002.6
20191215042202 21 269 4.0 8.0 0.00 0.00 0.00 80 1002.5
20191215041702 21 270 3.0 7.0 0.00 0.00 0.00 80 1002.5
20191215041202 21 277 2.0 9.0 0.00 0.00 0.00 80 1002.4
20191215040702 21 277 4.0 8.0 0.00 0.00 0.00 81 1002.3
20191215040202 21 271 5.0 19.0 0.00 0.00 0.00 81 1002.1
20191215035702 21 267 5.0 20.0 0.00 0.00 0.00 81 1002.1
20191215035202 21 272 5.0 24.0 0.00 0.00 0.00 81 1002.1
20191215034702 21 259 8.0 24.0 0.00 0.00 0.00 80 1002.1
20191215034202 21 273 3.0 15.0 0.00 0.00 0.00 80 1002.0
20191215033702 21 261 3.0 19.0 0.00 0.00 0.00 80 1002.1
20191215033202 21 270 4.0 16.0 0.00 0.00 0.00 80 1001.9
20191215032702 21 262 5.0 16.0 0.00 0.00 0.00 81 1002.0
20191215032203 21 261 4.0 21.0 0.00 0.00 0.00 81 1001.8
20191215031702 20 263 5.0 10.0 0.00 0.00 0.00 81 1001.6
20191215031203 21 266 4.0 11.0 0.00 0.00 0.00 81 1001.6
20191215030703 21 261 3.0 10.0 0.00 0.00 0.00 81 1001.7
20191215030202 21 270 3.0 8.0 0.00 0.00 0.00 81 1001.8
20191215025702 20 277 3.0 21.0 0.00 0.00 0.00 82 1001.7
20191215025202 20 277 6.0 22.0 0.00 0.00 0.00 82 1001.6
20191215024702 20 254 4.0 24.0 0.00 0.00 0.00 82 1001.6
20191215024203 20 265 10.0 24.0 0.00 0.00 0.00 82 1001.7
20191215023702 20 266 6.0 21.0 0.00 0.00 0.00 82 1001.7
20191215023202 20 269 4.0 18.0 0.00 0.00 0.00 82 1001.7
20191215022702 20 264 5.0 14.0 0.00 0.00 0.00 82 1001.7
20191215022203 21 271 3.0 8.0 0.00 0.00 0.00 82 1001.9
20191215021702 20 271 3.0 8.0 0.00 0.00 0.00 82 1001.8
20191215021202 21 263 2.0 13.0 0.00 0.00 0.00 82 1002.0
20191215020703 21 275 3.0 11.0 0.00 0.00 0.00 83 1002.1
20191215020202 21 269 5.0 21.0 0.00 0.00 0.00 83 1002.0
20191215015703 21 265 3.0 14.0 0.00 0.00 0.00 84 1002.0
20191215015203 21 267 5.0 25.0 0.00 0.00 0.00 84 1001.9
20191215014703 21 273 4.0 28.0 0.00 0.00 0.00 84 1001.8
20191215014202 21 270 5.0 28.0 0.00 0.00 0.00 85 1001.7
20191215013703 21 272 9.0 27.0 0.00 0.00 0.00 85 1001.7
20191215013202 20 265 8.0 12.0 0.00 0.00 0.00 84 1001.7
20191215012702 20 259 5.0 25.0 0.00 0.00 0.00 84 1001.6
20191215012203 20 256 5.0 22.0 0.00 0.00 0.00 84 1001.6
20191215011703 20 264 4.0 18.0 0.00 0.00 0.00 84 1001.6
20191215011203 20 248 4.0 9.0 0.00 0.00 0.00 83 1001.5
20191215010702 20 251 4.0 17.0 0.00 0.00 0.00 83 1001.6
20191215010203 20 261 4.0 19.0 0.00 0.00 0.00 82 1001.7
20191215005702 20 250 3.0 14.0 0.00 0.00 0.00 82 1001.7
20191215005202 20 251 3.0 16.0 0.00 0.00 0.00 82 1001.7
20191215004702 20 237 2.0 5.0 0.00 0.00 0.00 82 1001.8
20191215004202 21 261 1.0 11.0 0.00 0.00 0.00 82 1002.0
20191215003703 21 263 3.0 8.0 0.00 0.00 0.00 81 1001.9
20191215003203 21 252 2.0 5.0 0.00 0.00 0.00 81 1002.0
20191215002703 21 254 1.0 5.0 0.00 0.00 0.00 82 1002.0
20191215002202 20 260 2.0 6.0 0.00 0.00 0.00 82 1002.0
20191215001702 20 248 3.0 6.0 0.00 0.00 0.00 81 1002.0
20191215001202 21 250 2.0 5.0 0.00 0.00 0.00 81 1002.0
20191215000702 21 247 3.0 13.0 0.00 0.00 0.00 81 1002.0
20191215000202 21 253 5.0 19.0 0.00 0.00 0.00 81 1001.9
20191214235702 21 256 4.0 13.0 0.00 0.00 0.00 81 1002.1